createdAt,value
2018-08-19T00:01:32.246Z,97.22
2018-08-19T00:03:59.648Z,112.30
2018-08-19T00:06:27.557Z,98.82
2018-08-19T00:08:58.505Z,82.30
2018-08-19T00:11:25.917Z,88.58
2018-08-19T00:13:53.521Z,102.30
2018-08-19T00:16:21.075Z,81.10
2018-08-19T00:18:48.762Z,83.15
2018-08-19T00:21:16.146Z,84.67
2018-08-19T00:23:48.693Z,78.95
2018-08-19T00:26:16.144Z,81.45
2018-08-19T00:28:44.206Z,81.17
2018-08-19T00:31:11.584Z,85.75
2018-08-19T00:33:38.982Z,96.67
2018-08-19T00:36:16.289Z,85.80
2018-08-19T00:38:44.278Z,90.22
2018-08-19T00:41:11.940Z,76.65
2018-08-19T00:43:40.933Z,89.20
2018-08-19T00:46:13.097Z,74.40
2018-08-19T00:48:40.969Z,83.40
2018-08-19T00:51:08.293Z,89.30
2018-08-19T00:53:35.965Z,93.90
2018-08-19T00:56:03.650Z,84.07
2018-08-19T00:58:30.998Z,93.87
2018-08-19T01:00:58.948Z,75.37
2018-08-19T01:03:26.598Z,104.72
2018-08-19T01:05:54.037Z,70.05
2018-08-19T01:08:22.052Z,97.60
2018-08-19T01:10:49.458Z,86.42
2018-08-19T01:13:17.185Z,94.77
2018-08-19T01:15:44.845Z,83.20
2018-08-19T01:18:12.920Z,89.23
2018-08-19T01:20:40.316Z,104.80
2018-08-19T01:23:08.038Z,92.35
2018-08-19T01:25:35.690Z,97.15
2018-08-19T01:28:03.017Z,61.75
2018-08-19T01:30:30.357Z,80.30
2018-08-19T01:32:58.272Z,93.92
2018-08-19T01:35:31.171Z,101.25
2018-08-19T01:37:58.929Z,89.83
2018-08-19T01:40:26.584Z,84.40
2018-08-19T01:42:54.260Z,98.67
2018-08-19T01:45:21.654Z,86.00
2018-08-19T01:47:49.660Z,91.60
2018-08-19T01:50:18.328Z,111.85
2018-08-19T01:52:48.256Z,101.93
2018-08-19T01:55:15.895Z,120.65
2018-08-19T01:57:47.378Z,133.45
2018-08-19T02:00:16.392Z,116.70
2018-08-19T02:02:55.933Z,140.57
2018-08-19T02:05:24.441Z,122.15
2018-08-19T02:07:54.429Z,141.63
2018-08-19T02:10:23.013Z,130.07
2018-08-19T02:12:51.489Z,136.95
2018-08-19T02:15:19.265Z,142.90
2018-08-19T02:17:52.447Z,127.10
2018-08-19T02:20:20.930Z,126.97
2018-08-19T02:22:53.095Z,133.43
2018-08-19T02:25:20.454Z,124.62
2018-08-19T02:27:50.225Z,144.22
2018-08-19T02:30:17.881Z,133.07
2018-08-19T02:32:45.290Z,137.03
2018-08-19T02:35:14.269Z,138.22
2018-08-19T02:37:42.045Z,113.05
2018-08-19T02:40:11.521Z,111.88
2018-08-19T02:42:39.165Z,120.17
2018-08-19T02:45:07.664Z,104.27
2018-08-19T02:47:35.933Z,111.35
2018-08-19T02:50:03.533Z,124.58
2018-08-19T02:52:33.449Z,133.52
2018-08-19T02:55:02.074Z,123.70
2018-08-19T02:57:30.200Z,124.70
2018-08-19T02:59:58.540Z,126.37
2018-08-19T03:02:31.693Z,130.03
2018-08-19T03:04:59.717Z,107.75
2018-08-19T03:07:30.142Z,118.10
2018-08-19T03:10:05.411Z,127.27
2018-08-19T03:12:33.472Z,126.78
2018-08-19T03:15:01.267Z,110.63
2018-08-19T03:17:29.578Z,119.05
2018-08-19T03:19:58.312Z,116.93
2018-08-19T03:22:26.691Z,122.98
2018-08-19T03:24:55.341Z,127.90
2018-08-19T03:27:22.728Z,111.08
2018-08-19T03:29:55.004Z,117.87
2018-08-19T03:32:23.083Z,116.00
2018-08-19T03:34:51.352Z,118.17
2018-08-19T03:37:18.708Z,120.47
2018-08-19T03:39:46.383Z,151.60
2018-08-19T03:42:15.277Z,131.80
2018-08-19T03:44:43.948Z,132.67
2018-08-19T03:47:25.988Z,124.12
2018-08-19T03:49:54.642Z,125.15
2018-08-19T03:52:22.711Z,126.13
2018-08-19T03:54:50.371Z,148.45
2018-08-19T03:57:19.472Z,124.92
2018-08-19T03:59:46.839Z,120.60
2018-08-19T04:02:14.893Z,131.63
2018-08-19T04:04:42.240Z,101.85
2018-08-19T04:07:10.128Z,108.32
2018-08-19T04:09:37.496Z,124.02
2018-08-19T04:12:07.285Z,122.62
2018-08-19T04:14:35.939Z,113.28
2018-08-19T04:17:03.725Z,105.50
2018-08-19T04:19:31.692Z,127.97
2018-08-19T04:21:59.793Z,119.03
2018-08-19T04:24:27.853Z,130.72
2018-08-19T04:26:56.637Z,133.18
2018-08-19T04:29:25.744Z,133.25
2018-08-19T04:31:53.238Z,111.62
2018-08-19T04:34:20.974Z,144.53
2018-08-19T04:36:48.643Z,119.93
2018-08-19T04:39:16.050Z,123.28
2018-08-19T04:41:44.049Z,131.23
2018-08-19T04:44:11.832Z,139.90
2018-08-19T04:46:39.277Z,144.53
2018-08-19T04:49:06.934Z,132.95
2018-08-19T04:51:34.651Z,135.10
2018-08-19T04:54:02.604Z,146.93
2018-08-19T04:56:30.177Z,130.50
2018-08-19T04:58:57.593Z,114.95
2018-08-19T05:01:25.246Z,120.97
2018-08-19T05:03:52.904Z,145.30
2018-08-19T05:06:20.248Z,144.80
2018-08-19T05:08:47.637Z,144.68
2018-08-19T05:11:15.356Z,143.00
2018-08-19T05:13:43.045Z,148.73
2018-08-19T05:16:10.722Z,156.97
2018-08-19T05:18:38.100Z,166.03
2018-08-19T05:21:11.020Z,139.82
2018-08-19T05:23:39.333Z,158.53
2018-08-19T05:26:06.739Z,123.90
2018-08-19T05:28:34.411Z,141.70
2018-08-19T05:31:02.000Z,134.97
2018-08-19T05:33:29.396Z,147.55
2018-08-19T05:35:57.452Z,129.35
2018-08-19T05:38:24.864Z,136.10
2018-08-19T05:40:57.670Z,142.65
2018-08-19T05:43:25.653Z,148.05
2018-08-19T05:45:56.236Z,131.13
2018-08-19T05:48:24.073Z,130.87
2018-08-19T05:50:51.440Z,145.93
2018-08-19T05:53:18.932Z,138.40
2018-08-19T05:55:46.864Z,101.00
2018-08-19T05:58:14.579Z,134.87
2018-08-19T06:00:43.981Z,129.12
2018-08-19T06:03:11.722Z,114.70
2018-08-19T06:05:39.417Z,113.68
2018-08-19T06:08:12.528Z,135.90
2018-08-19T06:10:40.384Z,112.17
2018-08-19T06:13:08.745Z,115.35
2018-08-19T06:15:36.101Z,124.85
2018-08-19T06:18:03.868Z,122.78
2018-08-19T06:20:32.040Z,118.50
2018-08-19T06:23:00.329Z,126.05
2018-08-19T06:25:27.820Z,108.57
2018-08-19T06:27:56.238Z,119.82
2018-08-19T06:30:23.909Z,114.00
2018-08-19T06:32:51.317Z,108.60
2018-08-19T06:35:19.248Z,105.25
2018-08-19T06:37:46.657Z,103.55
2018-08-19T06:40:15.916Z,122.85
2018-08-19T06:42:43.308Z,114.80
2018-08-19T06:45:11.398Z,97.35
2018-08-19T06:47:39.484Z,117.35
2018-08-19T06:50:12.628Z,112.72
2018-08-19T06:52:40.253Z,106.50
2018-08-19T06:55:07.681Z,108.32
2018-08-19T06:57:35.992Z,103.30
2018-08-19T07:00:06.118Z,125.20
2018-08-19T07:02:33.456Z,141.00
2018-08-19T07:05:00.852Z,126.70
2018-08-19T07:07:28.594Z,126.42
2018-08-19T07:09:55.994Z,158.22
2018-08-19T07:12:24.009Z,109.80
2018-08-19T07:14:51.789Z,114.80
2018-08-19T07:17:19.617Z,122.80
2018-08-19T07:19:47.414Z,178.30
2018-08-19T07:22:18.634Z,123.92
2018-08-19T07:24:46.185Z,96.97
2018-08-19T07:27:13.591Z,116.70
2018-08-19T07:29:41.045Z,119.30
2018-08-19T07:32:09.597Z,129.80
2018-08-19T07:34:37.453Z,99.15
2018-08-19T07:37:05.360Z,143.50
2018-08-19T07:39:34.130Z,185.65
2018-08-19T07:42:01.796Z,149.62
2018-08-19T07:44:29.725Z,189.70
2018-08-19T07:46:57.134Z,144.00
2018-08-19T07:49:25.026Z,157.18
2018-08-19T07:51:53.012Z,161.20
2018-08-19T07:54:20.393Z,164.83
2018-08-19T07:56:47.837Z,149.93
2018-08-19T07:59:16.573Z,168.80
2018-08-19T08:01:44.240Z,168.70
2018-08-19T08:04:11.888Z,175.95
2018-08-19T08:06:39.271Z,182.12
2018-08-19T08:09:07.601Z,142.80
2018-08-19T08:11:35.021Z,174.42
2018-08-19T08:14:03.658Z,167.20
2018-08-19T08:16:31.780Z,159.03
2018-08-19T08:18:59.714Z,173.78
2018-08-19T08:21:27.917Z,148.97
2018-08-19T08:23:55.503Z,164.30
2018-08-19T08:26:23.117Z,149.32
2018-08-19T08:28:55.823Z,142.13
2018-08-19T08:31:23.644Z,143.77
2018-08-19T08:33:51.304Z,111.05
2018-08-19T08:36:18.668Z,130.63
2018-08-19T08:38:46.324Z,136.77
2018-08-19T08:41:13.659Z,137.43
2018-08-19T08:43:40.989Z,118.37
2018-08-19T08:46:10.142Z,145.85
2018-08-19T08:48:37.496Z,137.55
2018-08-19T08:51:05.266Z,156.20
2018-08-19T08:53:37.773Z,133.23
2018-08-19T08:56:06.530Z,123.13
2018-08-19T08:58:34.596Z,152.05
2018-08-19T09:01:02.565Z,128.68
2018-08-19T09:03:30.061Z,141.50
2018-08-19T09:05:57.597Z,157.95
2018-08-19T09:08:25.342Z,141.30
2018-08-19T09:10:53.317Z,162.12
2018-08-19T09:13:21.501Z,155.93
2018-08-19T09:15:48.836Z,144.80
2018-08-19T09:18:16.510Z,191.33
2018-08-19T09:20:44.160Z,145.87
2018-08-19T09:23:11.850Z,163.92
2018-08-19T09:25:39.460Z,165.60
2018-08-19T09:28:07.064Z,165.47
2018-08-19T09:30:36.605Z,144.87
2018-08-19T09:33:04.102Z,138.52
2018-08-19T09:35:33.218Z,131.85
2018-08-19T09:38:11.882Z,153.60
2018-08-19T09:40:39.493Z,128.07
2018-08-19T09:43:08.280Z,169.60
2018-08-19T09:45:47.613Z,128.85
2018-08-19T09:48:29.225Z,151.60
2018-08-19T09:51:21.759Z,167.20
2018-08-19T09:53:49.494Z,138.67
2018-08-19T09:56:20.853Z,161.95
2018-08-19T09:59:02.784Z,145.75
2018-08-19T10:01:36.472Z,153.45
2018-08-19T10:04:08.446Z,173.50
2018-08-19T10:06:35.913Z,148.13
2018-08-19T10:09:03.554Z,149.55
2018-08-19T10:11:32.220Z,156.03
2018-08-19T10:14:03.246Z,152.25
2018-08-19T10:16:36.466Z,110.07
2018-08-19T10:19:03.866Z,162.80
2018-08-19T10:21:31.303Z,128.87
2018-08-19T10:24:03.480Z,163.52
2018-08-19T10:26:30.998Z,153.60
2018-08-19T10:28:58.685Z,162.65
2018-08-19T10:31:26.353Z,143.82
2018-08-19T10:33:54.908Z,145.90
2018-08-19T10:36:22.353Z,146.22
2018-08-19T10:38:50.361Z,156.72
2018-08-19T10:41:17.813Z,144.07
2018-08-19T10:43:45.510Z,154.00
2018-08-19T10:46:13.464Z,173.47
2018-08-19T10:48:41.576Z,164.13
2018-08-19T10:51:09.258Z,144.70
2018-08-19T10:53:37.141Z,135.30
2018-08-19T10:56:04.626Z,150.70
2018-08-19T10:58:32.446Z,183.78
2018-08-19T11:00:59.780Z,180.67
2018-08-19T11:03:27.602Z,216.68
2018-08-19T11:05:56.560Z,224.27
2018-08-19T11:08:23.918Z,221.30
2018-08-19T11:10:51.353Z,253.13
2018-08-19T11:13:20.987Z,275.70
2018-08-19T11:15:50.211Z,297.45
2018-08-19T11:18:27.861Z,295.03
2018-08-19T11:21:00.803Z,295.42
2018-08-19T11:23:28.427Z,311.20
2018-08-19T11:25:56.778Z,355.00
2018-08-19T11:28:30.086Z,339.55
2018-08-19T11:30:57.676Z,295.50
2018-08-19T11:33:30.670Z,296.27
2018-08-19T11:35:58.342Z,270.97
2018-08-19T11:38:26.119Z,343.35
2018-08-19T11:40:53.701Z,272.42
2018-08-19T11:43:21.274Z,310.97
2018-08-19T11:45:48.589Z,288.55
2018-08-19T11:48:16.023Z,395.27
2018-08-19T11:50:43.678Z,254.87
2018-08-19T11:53:11.261Z,380.07
2018-08-19T11:55:38.649Z,314.68
2018-08-19T11:58:07.608Z,333.23
2018-08-19T12:00:40.456Z,210.32
2018-08-19T12:03:08.986Z,322.52
2018-08-19T12:05:36.950Z,264.07
2018-08-19T12:08:04.912Z,352.62
2018-08-19T12:10:32.506Z,398.13
2018-08-19T12:13:00.416Z,329.05
2018-08-19T12:15:27.842Z,289.75
2018-08-19T12:17:56.527Z,341.17
2018-08-19T12:20:28.261Z,319.60
2018-08-19T12:22:56.859Z,345.42
2018-08-19T12:25:24.565Z,322.58
2018-08-19T12:27:51.986Z,332.83
2018-08-19T12:30:20.081Z,301.33
2018-08-19T12:32:48.984Z,314.00
2018-08-19T12:35:16.677Z,344.68
2018-08-19T12:37:44.804Z,384.75
2018-08-19T12:40:12.226Z,347.63
2018-08-19T12:42:44.920Z,421.77
2018-08-19T12:45:12.370Z,331.93
2018-08-19T12:47:41.446Z,305.75
2018-08-19T12:50:10.528Z,298.73
2018-08-19T12:52:37.870Z,360.40
2018-08-19T12:55:09.147Z,312.77
2018-08-19T12:57:37.549Z,353.60
2018-08-19T13:00:13.735Z,372.70
2018-08-19T13:02:43.248Z,328.45
2018-08-19T13:05:10.621Z,364.40
2018-08-19T13:07:38.230Z,392.82
2018-08-19T13:10:06.172Z,318.88
2018-08-19T13:12:38.545Z,285.73
2018-08-19T13:15:05.872Z,293.40
2018-08-19T13:17:33.570Z,349.30
2018-08-19T13:20:05.742Z,394.10
2018-08-19T13:22:34.114Z,412.85
2018-08-19T13:25:01.480Z,353.00
2018-08-19T13:27:29.745Z,359.80
2018-08-19T13:29:57.408Z,303.25
2018-08-19T13:32:25.888Z,354.53
2018-08-19T13:34:53.562Z,321.70
2018-08-19T13:37:21.418Z,309.73
2018-08-19T13:39:49.056Z,392.95
2018-08-19T13:42:16.729Z,392.50
2018-08-19T13:44:44.409Z,340.50
2018-08-19T13:47:12.871Z,362.70
2018-08-19T13:49:40.337Z,340.77
2018-08-19T13:52:08.206Z,307.20
2018-08-19T13:54:41.098Z,314.02
2018-08-19T13:57:08.601Z,337.95
2018-08-19T13:59:36.082Z,285.80
2018-08-19T14:02:04.125Z,314.77
2018-08-19T14:04:32.460Z,341.67
2018-08-19T14:07:00.425Z,404.30
2018-08-19T14:09:28.064Z,422.23
2018-08-19T14:11:55.471Z,401.13
2018-08-19T14:14:23.134Z,305.43
2018-08-19T14:16:50.777Z,310.70
2018-08-19T14:19:18.133Z,375.47
2018-08-19T14:21:45.440Z,366.80
2018-08-19T14:24:13.061Z,368.85
2018-08-19T14:26:40.482Z,369.13
2018-08-19T14:29:07.882Z,396.43
2018-08-19T14:31:35.489Z,378.52
2018-08-19T14:34:03.165Z,405.17
2018-08-19T14:36:30.772Z,394.57
2018-08-19T14:38:58.144Z,354.27
2018-08-19T14:41:25.575Z,366.80
2018-08-19T14:43:58.957Z,393.85
2018-08-19T14:46:27.533Z,395.17
2018-08-19T14:48:57.028Z,389.00
2018-08-19T14:51:24.792Z,418.23
2018-08-19T14:53:52.313Z,333.90
2018-08-19T14:56:19.928Z,306.75
2018-08-19T14:58:47.365Z,346.18
2018-08-19T15:01:14.733Z,365.70
2018-08-19T15:03:46.403Z,352.62
2018-08-19T15:06:13.793Z,382.98
2018-08-19T15:08:41.214Z,324.35
2018-08-19T15:11:08.674Z,409.55
2018-08-19T15:13:36.115Z,386.43
2018-08-19T15:16:03.789Z,362.95
2018-08-19T15:18:31.132Z,318.60
2018-08-19T15:20:59.029Z,424.02
2018-08-19T15:23:26.481Z,374.42
2018-08-19T15:25:53.805Z,364.75
2018-08-19T15:28:21.693Z,293.95
2018-08-19T15:30:49.117Z,408.38
2018-08-19T15:33:16.783Z,390.77
2018-08-19T15:35:44.274Z,350.50
2018-08-19T15:38:12.326Z,447.00
2018-08-19T15:40:42.565Z,382.65
2018-08-19T15:43:10.977Z,397.72
2018-08-19T15:45:38.356Z,317.48
2018-08-19T15:48:06.481Z,384.40
2018-08-19T15:50:34.183Z,346.47
2018-08-19T15:53:02.307Z,391.50
2018-08-19T15:55:30.076Z,341.88
2018-08-19T15:57:59.054Z,354.30
2018-08-19T16:00:26.497Z,404.35
2018-08-19T16:02:54.410Z,392.62
2018-08-19T16:05:22.364Z,423.50
2018-08-19T16:07:50.043Z,381.52
2018-08-19T16:10:17.691Z,317.23
2018-08-19T16:12:48.815Z,370.17
2018-08-19T16:15:21.489Z,365.95
2018-08-19T16:17:48.887Z,294.55
2018-08-19T16:20:16.381Z,362.77
2018-08-19T16:22:43.736Z,378.95
2018-08-19T16:25:11.202Z,361.07
2018-08-19T16:27:38.724Z,320.60
2018-08-19T16:30:06.511Z,343.75
2018-08-19T16:32:34.076Z,351.45
2018-08-19T16:35:01.961Z,404.48
2018-08-19T16:37:29.973Z,365.80
2018-08-19T16:39:58.735Z,281.70
2018-08-19T16:42:26.628Z,364.88
2018-08-19T16:44:54.565Z,373.38
2018-08-19T16:47:22.105Z,267.57
2018-08-19T16:49:49.601Z,280.75
2018-08-19T16:52:17.473Z,357.87
2018-08-19T16:54:44.961Z,329.07
2018-08-19T16:57:12.781Z,372.17
2018-08-19T16:59:40.652Z,351.65
2018-08-19T17:02:08.785Z,329.25
2018-08-19T17:04:37.526Z,338.92
2018-08-19T17:07:07.495Z,366.27
2018-08-19T17:09:36.281Z,319.75
2018-08-19T17:12:04.895Z,334.40
2018-08-19T17:14:33.212Z,301.82
2018-08-19T17:17:01.587Z,304.63
2018-08-19T17:19:30.357Z,327.33
2018-08-19T17:21:59.003Z,350.10
2018-08-19T17:24:27.304Z,375.10
2018-08-19T17:27:12.686Z,296.35
2018-08-19T17:29:41.034Z,316.08
2018-08-19T17:32:09.300Z,278.85
2018-08-19T17:34:42.202Z,372.10
2018-08-19T17:37:10.609Z,347.75
2018-08-19T17:39:39.199Z,340.98
2018-08-19T17:42:07.476Z,304.98
2018-08-19T17:44:36.796Z,279.40
2018-08-19T17:47:06.188Z,259.87
2018-08-19T17:49:35.642Z,299.35
2018-08-19T17:52:05.501Z,295.35
2018-08-19T17:54:34.077Z,311.83
2018-08-19T17:57:03.214Z,274.27
2018-08-19T17:59:31.399Z,315.03
2018-08-19T18:02:00.191Z,281.60
2018-08-19T18:04:35.121Z,239.80
2018-08-19T18:07:03.972Z,272.95
2018-08-19T18:09:33.270Z,255.70
2018-08-19T18:12:04.607Z,231.30
2018-08-19T18:14:33.669Z,225.80
2018-08-19T18:17:02.933Z,260.00
2018-08-19T18:19:34.460Z,199.97
2018-08-19T18:22:03.161Z,228.77
2018-08-19T18:24:31.799Z,209.83
2018-08-19T18:27:00.590Z,261.52
2018-08-19T18:29:33.097Z,212.23
2018-08-19T18:32:01.464Z,222.33
2018-08-19T18:34:29.658Z,203.07
2018-08-19T18:36:58.190Z,227.47
2018-08-19T18:39:26.822Z,209.67
2018-08-19T18:41:56.121Z,169.32
2018-08-19T18:44:24.753Z,200.57
2018-08-19T18:46:53.303Z,175.32
2018-08-19T18:49:23.035Z,189.30
2018-08-19T18:51:52.949Z,206.13
2018-08-19T18:54:29.591Z,214.10
2018-08-19T18:56:57.697Z,188.65
2018-08-19T18:59:25.601Z,198.23
2018-08-19T19:01:55.756Z,191.88
2018-08-19T19:04:23.356Z,188.22
2018-08-19T19:06:50.988Z,159.15
2018-08-19T19:09:18.795Z,209.40
2018-08-19T19:11:48.960Z,170.05
2018-08-19T19:14:19.028Z,171.50
2018-08-19T19:16:53.255Z,159.40
2018-08-19T19:19:21.189Z,164.33
2018-08-19T19:21:56.299Z,159.90
2018-08-19T19:24:43.957Z,154.55
2018-08-19T19:27:12.247Z,147.37
2018-08-19T19:29:40.450Z,117.90
2018-08-19T19:32:14.124Z,138.35
2018-08-19T19:34:41.608Z,151.03
2018-08-19T19:37:09.274Z,148.93
2018-08-19T19:39:37.509Z,133.00
2018-08-19T19:42:10.090Z,136.37
2018-08-19T19:44:38.783Z,120.50
2018-08-19T19:47:07.063Z,111.50
2018-08-19T19:49:38.142Z,138.75
2018-08-19T19:52:05.803Z,144.17
2018-08-19T19:54:34.349Z,147.57
2018-08-19T19:57:02.182Z,131.50
2018-08-19T19:59:31.274Z,110.12
2018-08-19T20:01:59.136Z,125.27
2018-08-19T20:04:26.658Z,122.62
2018-08-19T20:06:54.356Z,118.82
2018-08-19T20:09:22.029Z,125.82
2018-08-19T20:11:49.731Z,113.47
2018-08-19T20:14:18.504Z,108.80
2018-08-19T20:16:46.228Z,127.97
2018-08-19T20:19:13.897Z,113.00
2018-08-19T20:21:41.427Z,101.62
2018-08-19T20:24:09.168Z,121.20
2018-08-19T20:26:36.791Z,100.47
2018-08-19T20:29:04.493Z,96.67
2018-08-19T20:31:32.380Z,113.92
2018-08-19T20:34:00.267Z,105.37
2018-08-19T20:36:27.965Z,100.97
2018-08-19T20:38:56.567Z,108.35
2018-08-19T20:41:24.241Z,112.30
2018-08-19T20:43:52.708Z,106.78
2018-08-19T20:46:20.397Z,122.92
2018-08-19T20:48:49.134Z,79.80
2018-08-19T20:51:17.088Z,120.35
2018-08-19T20:53:45.261Z,102.60
2018-08-19T20:56:13.217Z,102.03
2018-08-19T20:58:40.931Z,105.72
2018-08-19T21:01:12.896Z,108.27
2018-08-19T21:03:40.472Z,107.90
2018-08-19T21:06:07.936Z,108.83
2018-08-19T21:08:35.437Z,136.92
2018-08-19T21:11:03.632Z,95.50
2018-08-19T21:13:31.540Z,95.53
2018-08-19T21:15:59.195Z,95.60
2018-08-19T21:18:27.024Z,89.67
2018-08-19T21:20:54.813Z,98.00
2018-08-19T21:23:22.716Z,102.40
2018-08-19T21:25:56.080Z,112.65
2018-08-19T21:28:23.731Z,101.30
2018-08-19T21:30:51.340Z,110.90
2018-08-19T21:33:18.971Z,109.27
2018-08-19T21:35:52.371Z,101.87
2018-08-19T21:38:21.049Z,94.15
2018-08-19T21:40:49.325Z,107.80
2018-08-19T21:43:18.277Z,105.93
2018-08-19T21:45:45.941Z,106.97
2018-08-19T21:48:16.198Z,108.70
2018-08-19T21:50:43.823Z,117.33
2018-08-19T21:53:14.598Z,109.95
2018-08-19T21:55:49.996Z,115.67
2018-08-19T21:58:18.112Z,119.72
2018-08-19T22:00:46.343Z,109.13
2018-08-19T22:03:20.113Z,100.27
2018-08-19T22:05:48.791Z,107.58
2018-08-19T22:08:16.696Z,109.37
2018-08-19T22:10:45.303Z,116.73
2018-08-19T22:13:13.412Z,106.25
2018-08-19T22:15:42.299Z,115.92
2018-08-19T22:18:11.272Z,112.57
2018-08-19T22:20:38.851Z,116.87
2018-08-19T22:23:06.667Z,98.95
2018-08-19T22:25:34.543Z,113.07
2018-08-19T22:28:01.980Z,97.67
2018-08-19T22:30:29.992Z,102.25
2018-08-19T22:32:58.006Z,117.82
2018-08-19T22:35:25.749Z,99.37
2018-08-19T22:37:53.620Z,111.28
2018-08-19T22:40:27.192Z,105.55
2018-08-19T22:42:54.892Z,112.95
2018-08-19T22:45:22.900Z,104.07
2018-08-19T22:47:50.409Z,112.03
2018-08-19T22:50:17.909Z,99.43
2018-08-19T22:52:45.651Z,91.55
2018-08-19T22:55:13.124Z,103.85
2018-08-19T22:57:41.021Z,101.23
2018-08-19T23:00:08.580Z,98.40
2018-08-19T23:02:36.460Z,101.07
2018-08-19T23:05:05.026Z,101.78
2018-08-19T23:07:32.616Z,124.57
2018-08-19T23:10:00.378Z,94.20
2018-08-19T23:12:28.237Z,98.25
2018-08-19T23:15:01.323Z,113.92
2018-08-19T23:17:28.831Z,96.90
2018-08-19T23:19:56.308Z,112.97
2018-08-19T23:22:24.137Z,101.20
2018-08-19T23:24:51.861Z,98.25
2018-08-19T23:27:19.635Z,108.27
2018-08-19T23:29:47.633Z,98.40
2018-08-19T23:32:15.376Z,92.57
2018-08-19T23:34:43.169Z,113.88
2018-08-19T23:37:10.984Z,113.90
2018-08-19T23:39:38.852Z,104.72
2018-08-19T23:42:06.729Z,91.37
2018-08-19T23:44:34.832Z,83.25
2018-08-19T23:47:02.909Z,96.02
2018-08-19T23:49:30.383Z,116.45
2018-08-19T23:51:57.919Z,108.40
2018-08-19T23:54:25.620Z,106.23
2018-08-19T23:56:53.084Z,98.70
2018-08-19T23:59:26.092Z,112.60
